createdAt,value
2019-03-11T00:00:08.954Z,100486.14
2019-03-11T00:05:11.064Z,100469.84
2019-03-11T00:10:13.149Z,100470.90
2019-03-11T00:15:15.247Z,100461.44
2019-03-11T00:20:17.316Z,100461.27
2019-03-11T00:25:19.355Z,100454.08
2019-03-11T00:30:21.451Z,100461.86
2019-03-11T00:35:23.500Z,100454.70
2019-03-11T00:40:25.829Z,100454.08
2019-03-11T00:45:27.900Z,100456.14
2019-03-11T00:50:29.985Z,100448.48
2019-03-11T00:55:32.087Z,100446.43
2019-03-11T01:00:35.242Z,100443.72
2019-03-11T01:05:37.329Z,100439.44
2019-03-11T01:10:39.367Z,100429.29
2019-03-11T01:15:41.431Z,100424.20
2019-03-11T01:20:43.517Z,100419.06
2019-03-11T01:25:45.666Z,100412.80
2019-03-11T01:30:47.844Z,100409.82
2019-03-11T01:35:49.967Z,100403.44
2019-03-11T01:40:52.297Z,100394.31
2019-03-11T01:45:54.445Z,100375.78
2019-03-11T01:50:56.501Z,100372.72
2019-03-11T01:55:58.562Z,100372.41
2019-03-11T02:01:00.668Z,100348.05
2019-03-11T02:06:02.879Z,100340.67
2019-03-11T02:11:04.940Z,100327.89
2019-03-11T02:16:06.956Z,100298.75
2019-03-11T02:21:09.013Z,100297.87
2019-03-11T02:26:11.150Z,100291.86
2019-03-11T02:31:13.846Z,100294.16
2019-03-11T02:36:15.953Z,100284.64
2019-03-11T02:41:17.985Z,100277.45
2019-03-11T02:46:20.147Z,100278.78
2019-03-11T02:51:22.330Z,100269.66
2019-03-11T02:56:24.435Z,100248.77
2019-03-11T03:01:44.395Z,100235.13
2019-03-11T03:06:46.496Z,100223.40
2019-03-11T03:11:48.609Z,100215.50
2019-03-11T03:16:50.658Z,100208.87
2019-03-11T03:21:52.813Z,100197.21
2019-03-11T03:26:54.866Z,100193.71
2019-03-11T03:31:57.029Z,100197.67
2019-03-11T03:36:59.092Z,100198.30
2019-03-11T03:42:01.355Z,100227.59
2019-03-11T03:47:03.458Z,100278.73
2019-03-11T03:52:06.440Z,100255.53
2019-03-11T03:57:09.333Z,100269.05
2019-03-11T04:02:11.764Z,100272.35
2019-03-11T04:07:13.870Z,100270.63
2019-03-11T04:12:16.286Z,100273.82
2019-03-11T04:17:18.480Z,100263.72
2019-03-11T04:22:20.574Z,100260.66
2019-03-11T04:27:22.892Z,100268.23
2019-03-11T04:32:25.016Z,100265.47
2019-03-11T04:37:27.155Z,100268.98
2019-03-11T04:42:29.285Z,100283.41
2019-03-11T04:47:31.429Z,100276.69
2019-03-11T04:52:33.538Z,100274.58
2019-03-11T04:57:41.111Z,100259.34
2019-03-11T05:02:43.164Z,100270.14
2019-03-11T05:07:45.277Z,100284.45
2019-03-11T05:12:47.367Z,100310.38
2019-03-11T05:17:50.211Z,100375.39
2019-03-11T05:22:54.716Z,100348.16
2019-03-11T05:27:56.657Z,100345.34
2019-03-11T05:32:58.695Z,100345.53
2019-03-11T05:38:00.801Z,100359.79
2019-03-11T05:43:03.339Z,100368.64
2019-03-11T05:48:05.429Z,100351.25
2019-03-11T05:53:07.913Z,100343.75
2019-03-11T05:58:10.481Z,100363.78
2019-03-11T06:03:12.559Z,100373.39
2019-03-11T06:08:22.010Z,100383.41
2019-03-11T06:13:35.263Z,100383.05
2019-03-11T06:18:44.558Z,100366.37
2019-03-11T06:23:47.148Z,100359.99
2019-03-11T06:28:49.255Z,100348.15
2019-03-11T06:33:51.489Z,100358.84
2019-03-11T06:38:53.638Z,100366.95
2019-03-11T06:43:55.995Z,100368.48
2019-03-11T06:48:58.506Z,100372.43
2019-03-11T06:54:00.602Z,100372.44
2019-03-11T06:59:02.722Z,100375.48
2019-03-11T07:04:04.762Z,100380.48
2019-03-11T07:09:07.815Z,100386.70
2019-03-11T07:14:10.120Z,100399.87
2019-03-11T07:19:12.183Z,100399.47
2019-03-11T07:24:14.692Z,100390.16
2019-03-11T07:29:16.826Z,100400.05
2019-03-11T07:34:18.923Z,100406.02
2019-03-11T07:39:21.384Z,100416.48
2019-03-11T07:44:23.498Z,100424.96
2019-03-11T07:49:25.617Z,100426.22
2019-03-11T07:54:35.490Z,100418.47
2019-03-11T07:59:32.046Z,100414.38
2019-03-11T08:04:34.177Z,100420.19
2019-03-11T08:09:38.274Z,100416.64
2019-03-11T08:14:40.536Z,100419.86
2019-03-11T08:19:42.680Z,100420.37
2019-03-11T08:24:44.763Z,100420.07
2019-03-11T08:29:46.831Z,100438.72
2019-03-11T08:34:49.339Z,100453.22
2019-03-11T08:39:51.518Z,100450.78
2019-03-11T08:44:53.594Z,100449.09
2019-03-11T08:49:55.730Z,100462.52
2019-03-11T08:54:58.150Z,100449.86
2019-03-11T09:00:00.374Z,100455.34
2019-03-11T09:05:03.022Z,100453.77
2019-03-11T09:10:07.230Z,100462.16
2019-03-11T09:15:10.884Z,100466.23
2019-03-11T09:20:13.012Z,100501.51
2019-03-11T09:25:15.126Z,100498.22
2019-03-11T09:30:18.297Z,100502.13
2019-03-11T09:35:20.455Z,100513.34
2019-03-11T09:40:22.585Z,100514.19
2019-03-11T09:45:24.745Z,100511.16
2019-03-11T09:50:26.828Z,100524.75
2019-03-11T09:55:29.012Z,100509.67
2019-03-11T10:00:31.092Z,100518.50
2019-03-11T10:05:33.460Z,100528.02
2019-03-11T10:10:35.585Z,100519.91
2019-03-11T10:15:38.096Z,100531.08
2019-03-11T10:20:40.238Z,100542.36
2019-03-11T10:25:42.399Z,100560.81
2019-03-11T10:30:44.627Z,100550.58
2019-03-11T10:35:46.711Z,100565.42
2019-03-11T10:40:48.788Z,100569.44
2019-03-11T10:45:50.966Z,100578.99
2019-03-11T10:50:53.542Z,100581.21
2019-03-11T10:55:55.784Z,100580.34
2019-03-11T11:00:57.869Z,100573.84
2019-03-11T11:06:00.018Z,100593.34
2019-03-11T11:11:02.208Z,100597.77
2019-03-11T11:16:04.708Z,100604.52
2019-03-11T11:21:06.885Z,100607.16
2019-03-11T11:26:09.201Z,100622.39
2019-03-11T11:31:11.245Z,100618.81
2019-03-11T11:36:13.327Z,100623.50
2019-03-11T11:41:16.610Z,100643.98
2019-03-11T11:46:18.876Z,100648.11
2019-03-11T11:51:21.089Z,100639.89
2019-03-11T11:56:23.205Z,100654.58
2019-03-11T12:01:25.284Z,100658.27
2019-03-11T12:06:27.470Z,100646.30
2019-03-11T12:11:29.548Z,100646.77
2019-03-11T12:16:31.697Z,100638.30
2019-03-11T12:21:33.812Z,100644.25
2019-03-11T12:26:35.930Z,100663.36
2019-03-11T12:31:38.081Z,100666.73
2019-03-11T12:36:40.660Z,100658.44
2019-03-11T12:41:43.075Z,100678.88
2019-03-11T12:46:45.742Z,100670.83
2019-03-11T12:51:50.135Z,100655.83
2019-03-11T12:56:51.986Z,100668.88
2019-03-11T13:01:54.153Z,100673.11
2019-03-11T13:06:56.194Z,100689.38
2019-03-11T13:11:58.264Z,100669.31
2019-03-11T13:17:00.727Z,100677.39
2019-03-11T13:22:02.945Z,100679.69
2019-03-11T13:27:05.370Z,100680.34
2019-03-11T13:32:07.480Z,100679.33
2019-03-11T13:37:09.616Z,100687.91
2019-03-11T13:42:12.129Z,100686.99
2019-03-11T13:47:14.636Z,100697.27
2019-03-11T13:52:16.855Z,100714.80
2019-03-11T13:57:19.231Z,100714.60
2019-03-11T14:02:21.401Z,100718.21
2019-03-11T14:07:23.431Z,100738.65
2019-03-11T14:12:25.509Z,100731.70
2019-03-11T14:17:27.605Z,100718.61
2019-03-11T14:22:29.734Z,100727.94
2019-03-11T14:27:31.872Z,100720.09
2019-03-11T14:32:35.048Z,100755.02
2019-03-11T14:37:37.151Z,100762.58
2019-03-11T14:42:39.316Z,100766.81
2019-03-11T14:47:41.447Z,100777.88
2019-03-11T14:52:43.558Z,100771.75
2019-03-11T14:57:45.692Z,100775.66
2019-03-11T15:02:48.544Z,100781.19
2019-03-11T15:07:51.187Z,100762.41
2019-03-11T15:12:53.628Z,100742.30
2019-03-11T15:17:55.664Z,100765.80
2019-03-11T15:23:05.936Z,100830.34
2019-03-11T15:28:02.203Z,100839.26
2019-03-11T15:33:04.331Z,100814.95
2019-03-11T15:38:06.431Z,100812.80
2019-03-11T15:43:09.350Z,100794.19
2019-03-11T15:48:11.504Z,100795.63
2019-03-11T15:53:13.733Z,100815.30
2019-03-11T15:58:15.947Z,100795.95
2019-03-11T16:03:18.505Z,100794.64
2019-03-11T16:08:20.605Z,100813.91
2019-03-11T16:13:22.730Z,100855.98
2019-03-11T16:18:24.874Z,100852.59
2019-03-11T16:23:26.992Z,100823.93
2019-03-11T16:28:29.141Z,100822.41
2019-03-11T16:33:33.931Z,100794.34
2019-03-11T16:38:35.202Z,100808.04
2019-03-11T16:43:37.319Z,100798.04
2019-03-11T16:48:39.416Z,100799.61
2019-03-11T16:53:41.518Z,100823.15
2019-03-11T16:58:43.602Z,100829.73
2019-03-11T17:03:45.764Z,100853.30
2019-03-11T17:08:47.858Z,100824.30
2019-03-11T17:13:49.967Z,100832.86
2019-03-11T17:18:52.115Z,100842.27
2019-03-11T17:23:54.208Z,100842.91
2019-03-11T17:28:56.296Z,100834.30
2019-03-11T17:33:59.283Z,100851.52
2019-03-11T17:39:01.448Z,100851.58
2019-03-11T17:44:03.600Z,100870.14
2019-03-11T17:49:05.752Z,100866.30
2019-03-11T17:54:07.911Z,100880.31
2019-03-11T17:59:10.252Z,100880.06
2019-03-11T18:04:12.381Z,100871.52
2019-03-11T18:09:14.476Z,100875.00
2019-03-11T18:14:16.567Z,100872.07
2019-03-11T18:19:18.687Z,100871.73
2019-03-11T18:24:21.124Z,100889.62
2019-03-11T18:29:23.210Z,100891.27
2019-03-11T18:34:25.243Z,100910.51
2019-03-11T18:39:27.786Z,100920.41
2019-03-11T18:44:29.969Z,100930.81
2019-03-11T18:49:32.146Z,100944.15
2019-03-11T18:54:36.823Z,100960.45
2019-03-11T18:59:38.471Z,100967.59
2019-03-11T19:04:41.299Z,100980.88
2019-03-11T19:09:43.455Z,100998.75
2019-03-11T19:14:45.573Z,101010.52
2019-03-11T19:19:47.682Z,101004.93
2019-03-11T19:24:49.893Z,101012.17
2019-03-11T19:29:52.041Z,101038.56
2019-03-11T19:34:54.209Z,101017.81
2019-03-11T19:39:56.455Z,101014.11
2019-03-11T19:44:58.623Z,101024.21
2019-03-11T19:50:00.714Z,101031.88
2019-03-11T19:55:03.055Z,101025.32
2019-03-11T20:00:05.736Z,101031.36
2019-03-11T20:05:08.679Z,101024.09
2019-03-11T20:10:11.372Z,101036.89
2019-03-11T20:15:14.230Z,101039.31
2019-03-11T20:20:19.182Z,101061.84
2019-03-11T20:25:23.344Z,101050.17
2019-03-11T20:30:25.730Z,101067.08
2019-03-11T20:35:28.166Z,101076.84
2019-03-11T20:40:30.936Z,101050.09
2019-03-11T20:45:33.936Z,101068.97
2019-03-11T20:50:41.976Z,101079.09
2019-03-11T20:55:40.022Z,101104.19
2019-03-11T21:00:42.733Z,101139.44
2019-03-11T21:05:45.522Z,101140.94
2019-03-11T21:10:48.441Z,101125.48
2019-03-11T21:15:50.671Z,101143.62
2019-03-11T21:21:04.216Z,101155.69
2019-03-11T21:25:57.131Z,101140.33
2019-03-11T21:31:02.711Z,101156.61
2019-03-11T21:36:05.155Z,101160.62
2019-03-11T21:41:07.712Z,101174.34
2019-03-11T21:46:09.870Z,101189.24
2019-03-11T21:51:12.005Z,101177.84
2019-03-11T21:56:23.371Z,101189.70
2019-03-11T22:01:31.008Z,101198.95
2019-03-11T22:06:38.706Z,101194.53
2019-03-11T22:11:45.119Z,101192.75
2019-03-11T22:16:47.401Z,101195.44
2019-03-11T22:21:56.121Z,101202.46
2019-03-11T22:26:58.762Z,101196.95
2019-03-11T22:32:00.784Z,101181.64
2019-03-11T22:37:02.857Z,101169.09
2019-03-11T22:42:04.916Z,101139.80
2019-03-11T22:47:06.988Z,101144.31
2019-03-11T22:52:09.040Z,101146.95
2019-03-11T22:57:11.106Z,101159.98
2019-03-11T23:02:14.452Z,101175.61
2019-03-11T23:07:22.846Z,101199.84
2019-03-11T23:12:34.107Z,101217.92
2019-03-11T23:17:36.492Z,101228.25
2019-03-11T23:22:38.805Z,101237.49
2019-03-11T23:27:50.162Z,101251.07
2019-03-11T23:32:52.477Z,101263.00
2019-03-11T23:37:54.824Z,101281.19
2019-03-11T23:42:57.285Z,101279.91
2019-03-11T23:47:59.379Z,101290.85
2019-03-11T23:53:03.655Z,101302.70
2019-03-11T23:58:05.783Z,101307.57
